sensor_id;sensor_type;location;lat;lon;timestamp;P1;P2;P0
55857;PMS7003;41779;52.360;31.026;2023-12-20T00:02:20;13.8;10.4;8
55857;PMS7003;41779;52.360;31.026;2023-12-20T00:06:40;12.4;10.4;8.2
55857;PMS7003;41779;52.360;31.026;2023-12-20T00:11:40;17;12.2;9.2
55857;PMS7003;41779;52.360;31.026;2023-12-20T00:16:40;14.2;12.2;9.6
55857;PMS7003;41779;52.360;31.026;2023-12-20T00:21:48;17.4;12.2;8.8
55857;PMS7003;41779;52.360;31.026;2023-12-20T00:27:18;15.2;11.6;9.8
55857;PMS7003;41779;52.360;31.026;2023-12-20T00:31:48;14.8;10.4;8.4
55857;PMS7003;41779;52.360;31.026;2023-12-20T00:37:00;13;11.8;9
55857;PMS7003;41779;52.360;31.026;2023-12-20T00:42:18;17;10.8;8.6
55857;PMS7003;41779;52.360;31.026;2023-12-20T00:47:18;14.2;12;8.8
55857;PMS7003;41779;52.360;31.026;2023-12-20T00:52:16;12;10.4;7.8
55857;PMS7003;41779;52.360;31.026;2023-12-20T00:56:56;15.6;11.4;9.4
55857;PMS7003;41779;52.360;31.026;2023-12-20T01:01:50;13.8;11;8.8
55857;PMS7003;41779;52.360;31.026;2023-12-20T01:06:32;13.6;11.6;9.6
55857;PMS7003;41779;52.360;31.026;2023-12-20T01:11:40;14.6;10.4;8.4
55857;PMS7003;41779;52.360;31.026;2023-12-20T01:17:18;13;9.6;7
55857;PMS7003;41779;52.360;31.026;2023-12-20T01:21:58;13;10;8.4
55857;PMS7003;41779;52.360;31.026;2023-12-20T01:27:08;12;10.2;8.2
55857;PMS7003;41779;52.360;31.026;2023-12-20T01:32:08;13;10.8;8.8
55857;PMS7003;41779;52.360;31.026;2023-12-20T01:37:08;13.4;11.4;8.6
55857;PMS7003;41779;52.360;31.026;2023-12-20T01:42:16;14.8;11;8.8
55857;PMS7003;41779;52.360;31.026;2023-12-20T01:46:32;18;13;9.8
55857;PMS7003;41779;52.360;31.026;2023-12-20T01:52:19;12.8;10.4;7.6
55857;PMS7003;41779;52.360;31.026;2023-12-20T01:56:46;12.4;10.6;8.6
55857;PMS7003;41779;52.360;31.026;2023-12-20T02:01:32;14.2;11.4;8.6
55857;PMS7003;41779;52.360;31.026;2023-12-20T02:07:18;15.6;12;9.4
55857;PMS7003;41779;52.360;31.026;2023-12-20T02:11:50;15;11.6;8.8
55857;PMS7003;41779;52.360;31.026;2023-12-20T02:16:40;19.2;13.4;9.8
55857;PMS7003;41779;52.360;31.026;2023-12-20T02:22:06;17;13.4;9.8
55857;PMS7003;41779;52.360;31.026;2023-12-20T02:27:08;19.6;14.6;9.8
55857;PMS7003;41779;52.360;31.026;2023-12-20T02:32:18;17.4;13.8;10.6
55857;PMS7003;41779;52.360;31.026;2023-12-20T02:36:40;19.8;14.6;11.6
55857;PMS7003;41779;52.360;31.026;2023-12-20T02:41:58;19.8;16.3;12
55857;PMS7003;41779;52.360;31.026;2023-12-20T02:47:08;23.8;17.4;11.6
55857;PMS7003;41779;52.360;31.026;2023-12-20T02:52:18;20;16;11
55857;PMS7003;41779;52.360;31.026;2023-12-20T02:57:08;20.4;15.2;11.4
55857;PMS7003;41779;52.360;31.026;2023-12-20T03:02:08;21;14.2;11
55857;PMS7003;41779;52.360;31.026;2023-12-20T03:06:50;22.6;15.4;12
55857;PMS7003;41779;52.360;31.026;2023-12-20T03:12:09;20.6;15.6;11.8
55857;PMS7003;41779;52.360;31.026;2023-12-20T03:17:18;21.2;17.2;13.2
55857;PMS7003;41779;52.360;31.026;2023-12-20T03:21:40;18.6;15;11
55857;PMS7003;41779;52.360;31.026;2023-12-20T03:26:32;19.6;14.2;9.8
55857;PMS7003;41779;52.360;31.026;2023-12-20T03:31:40;20.2;14.8;11.8
55857;PMS7003;41779;52.360;31.026;2023-12-20T03:36:35;21.8;16.4;12
55857;PMS7003;41779;52.360;31.026;2023-12-20T03:42:18;21;16.8;13.3
55857;PMS7003;41779;52.360;31.026;2023-12-20T03:47:09;19.4;16.4;12.8
55857;PMS7003;41779;52.360;31.026;2023-12-20T03:52:03;21.8;17.6;12.6
55857;PMS7003;41779;52.360;31.026;2023-12-20T03:56:40;22.2;18.8;13.6
55857;PMS7003;41779;52.360;31.026;2023-12-20T04:01:34;27;19.8;13.6
55857;PMS7003;41779;52.360;31.026;2023-12-20T04:07:21;24.8;18.2;13
55857;PMS7003;41779;52.360;31.026;2023-12-20T04:11:57;25.8;20.2;14.4
55857;PMS7003;41779;52.360;31.026;2023-12-20T04:17:09;23.4;18.6;13.8
55857;PMS7003;41779;52.360;31.026;2023-12-20T04:21:41;22.2;18.2;13.6
55857;PMS7003;41779;52.360;31.026;2023-12-20T04:26:42;25.8;19.6;13.6
55857;PMS7003;41779;52.360;31.026;2023-12-20T04:32:19;26.8;19.2;14.2
55857;PMS7003;41779;52.360;31.026;2023-12-20T04:37:09;27.2;21.8;15.2
55857;PMS7003;41779;52.360;31.026;2023-12-20T04:42:08;29.5;20.5;14.8
55857;PMS7003;41779;52.360;31.026;2023-12-20T04:46:49;28.8;23;16.8
55857;PMS7003;41779;52.360;31.026;2023-12-20T04:52:11;29;22.8;16.4
55857;PMS7003;41779;52.360;31.026;2023-12-20T04:57:19;27.6;21.6;15.2
55857;PMS7003;41779;52.360;31.026;2023-12-20T05:01:33;29.4;22.8;16
55857;PMS7003;41779;52.360;31.026;2023-12-20T05:06:39;28.6;21.4;14.4
55857;PMS7003;41779;52.360;31.026;2023-12-20T05:11:41;29.8;20.2;15.8
55857;PMS7003;41779;52.360;31.026;2023-12-20T05:17:09;26.8;21.4;15.6
55857;PMS7003;41779;52.360;31.026;2023-12-20T05:22:09;27;21.4;15.6
55857;PMS7003;41779;52.360;31.026;2023-12-20T05:27:09;29.8;20.4;15.4
55857;PMS7003;41779;52.360;31.026;2023-12-20T05:32:09;27.6;22.4;15.4
55857;PMS7003;41779;52.360;31.026;2023-12-20T05:36:43;25.6;20.6;15
55857;PMS7003;41779;52.360;31.026;2023-12-20T05:42:09;24;19.3;13.8
55857;PMS7003;41779;52.360;31.026;2023-12-20T05:46:43;24.8;20.4;15.2
55857;PMS7003;41779;52.360;31.026;2023-12-20T05:51:57;26.8;22.4;15.2
55857;PMS7003;41779;52.360;31.026;2023-12-20T05:56:33;24.4;19.6;14
55857;PMS7003;41779;52.360;31.026;2023-12-20T06:01:33;27.2;21;15.6
55857;PMS7003;41779;52.360;31.026;2023-12-20T06:06:43;25.4;20.2;15.6
55857;PMS7003;41779;52.360;31.026;2023-12-20T06:11:51;29.2;22.2;15.6
55857;PMS7003;41779;52.360;31.026;2023-12-20T06:17:09;27.4;21.6;15.4
55857;PMS7003;41779;52.360;31.026;2023-12-20T06:22:01;28;22.6;16.2
55857;PMS7003;41779;52.360;31.026;2023-12-20T06:26:33;27.6;22.6;16.6
55857;PMS7003;41779;52.360;31.026;2023-12-20T06:31:59;31.4;23.6;16
55857;PMS7003;41779;52.360;31.026;2023-12-20T06:37:19;29.8;21.6;15
55857;PMS7003;41779;52.360;31.026;2023-12-20T06:41:59;30.6;23.6;16.8
55857;PMS7003;41779;52.360;31.026;2023-12-20T06:46:33;30;22.3;16.8
55857;PMS7003;41779;52.360;31.026;2023-12-20T06:51:41;31.8;26;17.6
55857;PMS7003;41779;52.360;31.026;2023-12-20T06:57:09;34.6;24.6;17
55857;PMS7003;41779;52.360;31.026;2023-12-20T07:02:17;32.6;23.8;15.8
55857;PMS7003;41779;52.360;31.026;2023-12-20T07:07:01;28.8;24.6;17.2
55857;PMS7003;41779;52.360;31.026;2023-12-20T07:12:11;30;22.6;16.2
55857;PMS7003;41779;52.360;31.026;2023-12-20T07:16:35;29.6;25.4;18
55857;PMS7003;41779;52.360;31.026;2023-12-20T07:21:43;28;24.6;18
55857;PMS7003;41779;52.360;31.026;2023-12-20T07:27:19;35.4;28.6;18.8
55857;PMS7003;41779;52.360;31.026;2023-12-20T07:31:33;33.4;25.2;18.2
55857;PMS7003;41779;52.360;31.026;2023-12-20T07:36:33;30.6;25.6;17.4
55857;PMS7003;41779;52.360;31.026;2023-12-20T07:41:33;33.6;23.6;17.4
55857;PMS7003;41779;52.360;31.026;2023-12-20T07:47:07;34.8;25.3;18
55857;PMS7003;41779;52.360;31.026;2023-12-20T07:52:15;34.4;26.4;17.8
55857;PMS7003;41779;52.360;31.026;2023-12-20T07:57:19;32.6;24.4;17.4
55857;PMS7003;41779;52.360;31.026;2023-12-20T08:01:59;34;25.6;18.2
55857;PMS7003;41779;52.360;31.026;2023-12-20T08:06:49;35.8;26.6;17.8
55857;PMS7003;41779;52.360;31.026;2023-12-20T08:12:03;34.4;27.2;18.8
55857;PMS7003;41779;52.360;31.026;2023-12-20T08:17:19;34.2;26.4;18.2
55857;PMS7003;41779;52.360;31.026;2023-12-20T08:21:33;35.6;29.4;19.4
55857;PMS7003;41779;52.360;31.026;2023-12-20T08:26:33;29.6;24.6;18.4
55857;PMS7003;41779;52.360;31.026;2023-12-20T08:31:51;31.8;25.4;17.2
55857;PMS7003;41779;52.360;31.026;2023-12-20T08:37:11;33.2;26.4;18.2
55857;PMS7003;41779;52.360;31.026;2023-12-20T08:42:19;31.8;25.8;17.6
55857;PMS7003;41779;52.360;31.026;2023-12-20T08:46:33;33;26.8;18.5
55857;PMS7003;41779;52.360;31.026;2023-12-20T08:52:07;34.2;28.2;18
55857;PMS7003;41779;52.360;31.026;2023-12-20T08:56:59;32.6;24.4;17.8
55857;PMS7003;41779;52.360;31.026;2023-12-20T09:01:41;32.6;25.4;16
55857;PMS7003;41779;52.360;31.026;2023-12-20T09:07:20;31;25;17.8
55857;PMS7003;41779;52.360;31.026;2023-12-20T09:11:41;30.4;23;15.8
55857;PMS7003;41779;52.360;31.026;2023-12-20T09:16:33;26.4;22.6;16
55857;PMS7003;41779;52.360;31.026;2023-12-20T09:21:33;32.8;26.6;16.4
55857;PMS7003;41779;52.360;31.026;2023-12-20T09:27:09;33.2;25.8;18.2
55857;PMS7003;41779;52.360;31.026;2023-12-20T09:32:19;31.4;24.2;17.8
55857;PMS7003;41779;52.360;31.026;2023-12-20T09:36:59;32.2;25.4;18.2
55857;PMS7003;41779;52.360;31.026;2023-12-20T09:42:11;33.4;24.2;18
55857;PMS7003;41779;52.360;31.026;2023-12-20T09:46:49;35.5;27.5;18
55857;PMS7003;41779;52.360;31.026;2023-12-20T09:51:53;29.8;23.6;18
55857;PMS7003;41779;52.360;31.026;2023-12-20T09:57:23;32.6;25.6;18.2
55857;PMS7003;41779;52.360;31.026;2023-12-20T10:01:49;37;25;17
55857;PMS7003;41779;52.360;31.026;2023-12-20T10:06:33;28;24;17
55857;PMS7003;41779;52.360;31.026;2023-12-20T10:11:34;30.4;24.6;16.4
55857;PMS7003;41779;52.360;31.026;2023-12-20T10:17:09;32.2;24.2;16.8
55857;PMS7003;41779;52.360;31.026;2023-12-20T10:22:19;30.4;25.8;19
55857;PMS7003;41779;52.360;31.026;2023-12-20T10:27:01;29.6;24.6;17.4
55857;PMS7003;41779;52.360;31.026;2023-12-20T10:31:35;36;26.8;19
55857;PMS7003;41779;52.360;31.026;2023-12-20T10:37:03;30.6;24.2;17.2
55857;PMS7003;41779;52.360;31.026;2023-12-20T10:41:33;27.4;22.8;16.4
55857;PMS7003;41779;52.360;31.026;2023-12-20T10:46:57;28.5;22.3;16
55857;PMS7003;41779;52.360;31.026;2023-12-20T10:51:33;31.4;24.2;17.2
55857;PMS7003;41779;52.360;31.026;2023-12-20T10:56:33;31.2;24.8;17.2
55857;PMS7003;41779;52.360;31.026;2023-12-20T11:01:51;29.4;22.8;17
55857;PMS7003;41779;52.360;31.026;2023-12-20T11:07:15;28.8;24.4;17.8
55857;PMS7003;41779;52.360;31.026;2023-12-20T11:12:22;29.6;23;16.2
55857;PMS7003;41779;52.360;31.026;2023-12-20T11:17:09;28.8;23.2;16.6
55857;PMS7003;41779;52.360;31.026;2023-12-20T11:21:49;30.4;23.8;17.2
55857;PMS7003;41779;52.360;31.026;2023-12-20T11:27:01;31.4;22.8;15.2
55857;PMS7003;41779;52.360;31.026;2023-12-20T11:31:59;28.2;22;14.8
55857;PMS7003;41779;52.360;31.026;2023-12-20T11:37:19;25.8;20.8;15.4
55857;PMS7003;41779;52.360;31.026;2023-12-20T11:42:11;24.8;18.8;15
55857;PMS7003;41779;52.360;31.026;2023-12-20T11:47:15;22;18.4;13.8
55857;PMS7003;41779;52.360;31.026;2023-12-20T11:52:09;25;19.5;14.3
55857;PMS7003;41779;52.360;31.026;2023-12-20T11:56:43;28.4;18.8;14.2
55857;PMS7003;41779;52.360;31.026;2023-12-20T12:02:01;25.2;17.8;13
55857;PMS7003;41779;52.360;31.026;2023-12-20T12:07:19;19.6;16.2;12
55857;PMS7003;41779;52.360;31.026;2023-12-20T12:12:01;20.8;17;13
55857;PMS7003;41779;52.360;31.026;2023-12-20T12:17:10;21.2;17.8;12.2
55857;PMS7003;41779;52.360;31.026;2023-12-20T12:22:06;22.4;16;12
55857;PMS7003;41779;52.360;31.026;2023-12-20T12:27:19;24.6;17.4;12.6
55857;PMS7003;41779;52.360;31.026;2023-12-20T12:31:43;20;16.2;13.2
55857;PMS7003;41779;52.360;31.026;2023-12-20T12:36:53;23.4;16;11.4
55857;PMS7003;41779;52.360;31.026;2023-12-20T12:42:21;18.2;15;10.6
55857;PMS7003;41779;52.360;31.026;2023-12-20T12:46:35;24;18.2;14.4
55857;PMS7003;41779;52.360;31.026;2023-12-20T12:52:23;26.5;20.8;14.8
55857;PMS7003;41779;52.360;31.026;2023-12-20T12:57:19;32.2;22.4;15.6
55857;PMS7003;41779;52.360;31.026;2023-12-20T13:02:01;25.4;20;15.2
55857;PMS7003;41779;52.360;31.026;2023-12-20T13:07:03;22;18.2;13.4
55857;PMS7003;41779;52.360;31.026;2023-12-20T13:11:33;23.6;19.4;14.4
55857;PMS7003;41779;52.360;31.026;2023-12-20T13:16:53;28.6;22.6;15.6
55857;PMS7003;41779;52.360;31.026;2023-12-20T13:21:51;34;26.2;18.4
55857;PMS7003;41779;52.360;31.026;2023-12-20T13:26:33;30.8;21.4;16
55857;PMS7003;41779;52.360;31.026;2023-12-20T13:32:13;24.8;19;13.4
55857;PMS7003;41779;52.360;31.026;2023-12-20T13:36:49;26.6;20.8;14.4
55857;PMS7003;41779;52.360;31.026;2023-12-20T13:42:21;28.2;23.2;16.6
55857;PMS7003;41779;52.360;31.026;2023-12-20T13:47:21;29.2;23;16.8
55857;PMS7003;41779;52.360;31.026;2023-12-20T13:51:35;28.5;23;15.5
55857;PMS7003;41779;52.360;31.026;2023-12-20T13:57:03;32;26.2;18.4
55857;PMS7003;41779;52.360;31.026;2023-12-20T14:01:43;29.8;24.2;17.6
55857;PMS7003;41779;52.360;31.026;2023-12-20T14:07:09;26.8;21;15.6
55857;PMS7003;41779;52.360;31.026;2023-12-20T14:11:33;24.8;20.8;15.6
55857;PMS7003;41779;52.360;31.026;2023-12-20T14:16:33;26.2;21;15.4
55857;PMS7003;41779;52.360;31.026;2023-12-20T14:22:19;23;19.4;14.8
55857;PMS7003;41779;52.360;31.026;2023-12-20T14:26:41;23.6;20.4;14.6
55857;PMS7003;41779;52.360;31.026;2023-12-20T14:31:37;24.4;19.8;14.6
55857;PMS7003;41779;52.360;31.026;2023-12-20T14:37:09;25;19.6;13.8
55857;PMS7003;41779;52.360;31.026;2023-12-20T14:42:09;23.6;20.2;15
55857;PMS7003;41779;52.360;31.026;2023-12-20T14:47:21;27;21.2;15.6
55857;PMS7003;41779;52.360;31.026;2023-12-20T14:51:59;25.3;19.8;15
55857;PMS7003;41779;52.360;31.026;2023-12-20T14:56:37;23.6;18.8;14
55857;PMS7003;41779;52.360;31.026;2023-12-20T15:01:33;19.6;16;12.2
55857;PMS7003;41779;52.360;31.026;2023-12-20T15:07:01;22;16.4;12.2
55857;PMS7003;41779;52.360;31.026;2023-12-20T15:11:53;16.8;15;11.6
55857;PMS7003;41779;52.360;31.026;2023-12-20T15:16:49;19.4;15;10.6
55857;PMS7003;41779;52.360;31.026;2023-12-20T15:22:19;21.2;15.6;10.6
55857;PMS7003;41779;52.360;31.026;2023-12-20T15:27:23;20.8;16.4;11.2
55857;PMS7003;41779;52.360;31.026;2023-12-20T15:32:09;23.6;16.8;12.4
55857;PMS7003;41779;52.360;31.026;2023-12-20T15:37:07;17;14.6;10.4
55857;PMS7003;41779;52.360;31.026;2023-12-20T15:41:59;22;17.6;11.8
55857;PMS7003;41779;52.360;31.026;2023-12-20T15:47:21;19.4;15;10.4
55857;PMS7003;41779;52.360;31.026;2023-12-20T16:22:23;20;14.5;10.5
55857;PMS7003;41779;52.360;31.026;2023-12-20T16:27:23;20.2;15.2;11.4
55857;PMS7003;41779;52.360;31.026;2023-12-20T16:31:59;19;16;11.2
55857;PMS7003;41779;52.360;31.026;2023-12-20T16:36:47;20.4;15.8;11.8
55857;PMS7003;41779;52.360;31.026;2023-12-20T16:42:19;18;14.4;11.8
55857;PMS7003;41779;52.360;31.026;2023-12-20T16:46:35;17.6;15.6;11.8
55857;PMS7003;41779;52.360;31.026;2023-12-20T16:51:43;22.6;17.4;12.6
55857;PMS7003;41779;52.360;31.026;2023-12-20T16:56:47;20.2;16.6;12.8
55857;PMS7003;41779;52.360;31.026;2023-12-20T17:02:01;18.6;14;9.6
55857;PMS7003;41779;52.360;31.026;2023-12-20T17:07:01;20.2;14.2;10.6
55857;PMS7003;41779;52.360;31.026;2023-12-20T17:12:09;19.4;15.8;11.4
55857;PMS7003;41779;52.360;31.026;2023-12-20T17:17:21;20.6;16;11.8
55857;PMS7003;41779;52.360;31.026;2023-12-20T17:21:51;17.5;14;11.5
55857;PMS7003;41779;52.360;31.026;2023-12-20T17:26:33;15;13;9
55857;PMS7003;41779;52.360;31.026;2023-12-20T17:31:41;17.4;14.2;11.4
55857;PMS7003;41779;52.360;31.026;2023-12-20T17:36:59;17.6;16.2;11.2
55857;PMS7003;41779;52.360;31.026;2023-12-20T17:41:45;16.8;14.4;11.6
55857;PMS7003;41779;52.360;31.026;2023-12-20T17:46:43;19.8;15.2;10.4
55857;PMS7003;41779;52.360;31.026;2023-12-20T17:52:21;20.8;15.4;11.4
55857;PMS7003;41779;52.360;31.026;2023-12-20T17:56:53;18;15.2;10.4
55857;PMS7003;41779;52.360;31.026;2023-12-20T18:02:17;19;16;12.2
55857;PMS7003;41779;52.360;31.026;2023-12-20T18:07:21;21.4;17;12.2
55857;PMS7003;41779;52.360;31.026;2023-12-20T18:11:33;20.8;15.4;11.8
55857;PMS7003;41779;52.360;31.026;2023-12-20T18:17:01;19;15.2;11.2
55857;PMS7003;41779;52.360;31.026;2023-12-20T18:22:13;20.4;16.8;13
55857;PMS7003;41779;52.360;31.026;2023-12-20T18:26:53;19;18;13
55857;PMS7003;41779;52.360;31.026;2023-12-20T18:31:49;16.6;15.2;11.4
55857;PMS7003;41779;52.360;31.026;2023-12-20T18:36:51;21.6;16.4;12
55857;PMS7003;41779;52.360;31.026;2023-12-20T18:42:23;22.6;18.4;13.4
55857;PMS7003;41779;52.360;31.026;2023-12-20T18:47:01;15.8;14.2;11.4
55857;PMS7003;41779;52.360;31.026;2023-12-20T18:52:21;20.4;15.4;11
55857;PMS7003;41779;52.360;31.026;2023-12-20T18:57:07;20.6;16;11.4
55857;PMS7003;41779;52.360;31.026;2023-12-20T19:01:43;19.4;16.2;11.6
55857;PMS7003;41779;52.360;31.026;2023-12-20T19:06:33;18.6;13.2;9.4
55857;PMS7003;41779;52.360;31.026;2023-12-20T19:11:33;20.4;15;11.6
55857;PMS7003;41779;52.360;31.026;2023-12-20T19:16:33;20.8;14;11.2
55857;PMS7003;41779;52.360;31.026;2023-12-20T19:21:57;17.4;13.4;9.8
55857;PMS7003;41779;52.360;31.026;2023-12-20T19:26:35;19;14.8;12
55857;PMS7003;41779;52.360;31.026;2023-12-20T19:32:01;18.6;15.2;11
55857;PMS7003;41779;52.360;31.026;2023-12-20T19:37:03;19;14.8;11.4
55857;PMS7003;41779;52.360;31.026;2023-12-20T19:42:11;21.6;14.8;10.4
55857;PMS7003;41779;52.360;31.026;2023-12-20T19:46:55;17;14.6;11
55857;PMS7003;41779;52.360;31.026;2023-12-20T19:52:09;19.2;14.6;10.8
55857;PMS7003;41779;52.360;31.026;2023-12-20T19:56:33;20.2;15.4;11.2
55857;PMS7003;41779;52.360;31.026;2023-12-20T20:01:35;17.4;12.8;10.4
55857;PMS7003;41779;52.360;31.026;2023-12-20T20:06:35;15;12.2;10
55857;PMS7003;41779;52.360;31.026;2023-12-20T20:12:01;20.2;13.6;11.2
55857;PMS7003;41779;52.360;31.026;2023-12-20T20:16:41;16.2;13.2;10
55857;PMS7003;41779;52.360;31.026;2023-12-20T20:22:21;15;12.4;10
55857;PMS7003;41779;52.360;31.026;2023-12-20T20:26:53;18.5;13.3;9.8
55857;PMS7003;41779;52.360;31.026;2023-12-20T20:32:21;15.6;10.4;8.6
55857;PMS7003;41779;52.360;31.026;2023-12-20T20:37:19;11.2;9;7.6
55857;PMS7003;41779;52.360;31.026;2023-12-20T20:41:59;15.6;11.6;9
55857;PMS7003;41779;52.360;31.026;2023-12-20T20:46:59;14.4;11.8;9.2
55857;PMS7003;41779;52.360;31.026;2023-12-20T20:51:35;14.8;10.2;7.4
55857;PMS7003;41779;52.360;31.026;2023-12-20T20:56:51;12.6;11.2;8.4
55857;PMS7003;41779;52.360;31.026;2023-12-20T21:02:11;15;10.6;8.2
55857;PMS7003;41779;52.360;31.026;2023-12-20T21:07:11;9.2;7.2;5
55857;PMS7003;41779;52.360;31.026;2023-12-20T21:11:43;8.2;6.6;5.2
55857;PMS7003;41779;52.360;31.026;2023-12-20T21:16:47;11;6.8;5.8
55857;PMS7003;41779;52.360;31.026;2023-12-20T21:21:37;8;5.4;4.2
55857;PMS7003;41779;52.360;31.026;2023-12-20T21:27:21;9.5;7.3;5.8
55857;PMS7003;41779;52.360;31.026;2023-12-20T21:31:53;9;7;5.6
55857;PMS7003;41779;52.360;31.026;2023-12-20T21:36:41;8;6.8;5
55857;PMS7003;41779;52.360;31.026;2023-12-20T21:42:01;10.2;8;6.2
55857;PMS7003;41779;52.360;31.026;2023-12-20T21:46:51;10.2;7.6;5.8
55857;PMS7003;41779;52.360;31.026;2023-12-20T21:52:19;12.4;8.6;6.4
55857;PMS7003;41779;52.360;31.026;2023-12-20T21:56:49;8.8;7.2;6.4
55857;PMS7003;41779;52.360;31.026;2023-12-20T22:01:34;10.2;7.8;6.4
55857;PMS7003;41779;52.360;31.026;2023-12-20T22:06:59;8.4;7.2;6
55857;PMS7003;41779;52.360;31.026;2023-12-20T22:11:55;8.2;6;5.2
55857;PMS7003;41779;52.360;31.026;2023-12-20T22:17:21;11.3;7.8;5
55857;PMS7003;41779;52.360;31.026;2023-12-20T22:22:19;5;5;5
55857;PMS7003;41779;52.360;31.026;2023-12-20T22:26:33;6;5;4.5
55857;PMS7003;41779;52.360;31.026;2023-12-20T22:31:43;7.5;5.5;4.8
55857;PMS7003;41779;52.360;31.026;2023-12-20T22:36:51;6.3;5;2.7
55857;PMS7003;41779;52.360;31.026;2023-12-20T22:42:09;6;5;4.5
55857;PMS7003;41779;52.360;31.026;2023-12-20T22:46:33;6.5;5;3
55857;PMS7003;41779;52.360;31.026;2023-12-20T22:51:43;5;2.5;1.5
55857;PMS7003;41779;52.360;31.026;2023-12-20T22:56:57;4.2;4;3.2
55857;PMS7003;41779;52.360;31.026;2023-12-20T23:02:11;5.6;3.6;3.2
55857;PMS7003;41779;52.360;31.026;2023-12-20T23:07:21;3.8;3;2.6
55857;PMS7003;41779;52.360;31.026;2023-12-20T23:12:13;4.6;3.8;3.2
55857;PMS7003;41779;52.360;31.026;2023-12-20T23:16:53;5;3.8;3.3
55857;PMS7003;41779;52.360;31.026;2023-12-20T23:21:35;4.2;3.2;2.2
55857;PMS7003;41779;52.360;31.026;2023-12-20T23:26:37;3;2;1.6
55857;PMS7003;41779;52.360;31.026;2023-12-20T23:31:35;4.4;1.6;1.4
55857;PMS7003;41779;52.360;31.026;2023-12-20T23:36:41;2;1.4;1.2
55857;PMS7003;41779;52.360;31.026;2023-12-20T23:41:41;2.2;1.2;1
55857;PMS7003;41779;52.360;31.026;2023-12-20T23:46:43;1.8;1;0.6
55857;PMS7003;41779;52.360;31.026;2023-12-20T23:52:09;1.6;0.6;0.6
55857;PMS7003;41779;52.360;31.026;2023-12-20T23:57:23;0.8;0.4;0
